createdAt,value
2017-07-21T00:00:01.089Z,63.5
2017-07-21T00:01:02.511Z,63.2
2017-07-21T00:02:24.525Z,63.3
2017-07-21T00:03:25.957Z,63.3
2017-07-21T00:04:47.492Z,63.4
2017-07-21T00:05:48.901Z,63.6
2017-07-21T00:07:10.571Z,64.1
2017-07-21T00:08:11.934Z,64.3
2017-07-21T00:09:33.554Z,64.1
2017-07-21T00:10:34.918Z,64.7
2017-07-21T00:11:56.482Z,64.4
2017-07-21T00:12:57.840Z,65.2
2017-07-21T00:14:19.543Z,65.5
2017-07-21T00:15:20.906Z,65.4
2017-07-21T00:16:42.479Z,65.9
2017-07-21T00:17:43.910Z,65.9
2017-07-21T00:19:05.467Z,66.1
2017-07-21T00:20:06.840Z,66.7
2017-07-21T00:21:28.424Z,65.9
2017-07-21T00:22:29.835Z,66.2
2017-07-21T00:23:51.356Z,67.0
2017-07-21T00:24:52.731Z,66.9
2017-07-21T00:26:14.277Z,66.7
2017-07-21T00:27:15.702Z,65.7
2017-07-21T00:28:37.216Z,65.9
2017-07-21T00:29:38.605Z,66.0
2017-07-21T00:31:00.148Z,66.0
2017-07-21T00:32:01.511Z,65.9
2017-07-21T00:33:23.031Z,66.3
2017-07-21T00:34:24.396Z,66.7
2017-07-21T00:35:45.962Z,66.7
2017-07-21T00:36:47.353Z,66.6
2017-07-21T00:38:08.910Z,66.8
2017-07-21T00:39:10.366Z,66.6
2017-07-21T00:40:31.903Z,67.0
2017-07-21T00:41:33.264Z,66.9
2017-07-21T00:42:54.870Z,67.0
2017-07-21T00:43:56.302Z,67.1
2017-07-21T00:45:17.922Z,66.8
2017-07-21T00:46:19.303Z,67.3
2017-07-21T00:47:40.889Z,67.5
2017-07-21T00:48:42.288Z,67.5
2017-07-21T00:50:03.916Z,67.9
2017-07-21T00:51:05.278Z,67.8
2017-07-21T00:52:26.799Z,68.0
2017-07-21T00:53:28.169Z,68.4
2017-07-21T00:54:49.714Z,68.5
2017-07-21T00:55:51.149Z,68.4
2017-07-21T00:57:12.663Z,68.5
2017-07-21T00:58:14.028Z,68.5
2017-07-21T00:59:35.605Z,69.4
2017-07-21T01:00:36.967Z,69.4
2017-07-21T01:01:58.983Z,69.3
2017-07-21T01:03:00.400Z,69.4
2017-07-21T01:04:21.960Z,69.6
2017-07-21T01:05:23.333Z,69.6
2017-07-21T01:06:44.862Z,69.4
2017-07-21T01:07:46.278Z,70.1
2017-07-21T01:09:07.874Z,69.9
2017-07-21T01:10:09.238Z,70.0
2017-07-21T01:11:31.270Z,70.1
2017-07-21T01:12:32.634Z,70.1
2017-07-21T01:13:54.195Z,70.0
2017-07-21T01:14:55.553Z,70.1
2017-07-21T01:16:17.092Z,70.5
2017-07-21T01:17:18.475Z,70.6
2017-07-21T01:18:39.995Z,70.1
2017-07-21T01:19:41.358Z,69.9
2017-07-21T01:21:03.049Z,69.9
2017-07-21T01:22:04.415Z,70.6
2017-07-21T01:23:25.928Z,70.6
2017-07-21T01:24:27.291Z,70.2
2017-07-21T01:25:48.830Z,70.5
2017-07-21T01:26:50.189Z,70.4
2017-07-21T01:28:11.706Z,70.8
2017-07-21T01:29:13.068Z,70.7
2017-07-21T01:30:34.604Z,70.9
2017-07-21T01:31:35.967Z,70.6
2017-07-21T01:32:57.484Z,71.1
2017-07-21T01:33:58.852Z,71.3
2017-07-21T01:35:20.445Z,71.5
2017-07-21T01:36:21.809Z,71.7
2017-07-21T01:37:43.363Z,71.6
2017-07-21T01:38:44.739Z,71.7
2017-07-21T01:40:06.268Z,71.6
2017-07-21T01:41:07.635Z,71.3
2017-07-21T01:42:29.659Z,72.0
2017-07-21T01:43:31.028Z,71.7
2017-07-21T01:44:52.545Z,72.1
2017-07-21T01:45:53.946Z,71.7
2017-07-21T01:47:15.558Z,72.0
2017-07-21T01:48:16.947Z,72.1
2017-07-21T01:49:38.505Z,71.9
2017-07-21T01:50:39.871Z,71.6
2017-07-21T01:52:01.441Z,71.7
2017-07-21T01:53:02.802Z,72.0
2017-07-21T01:54:24.378Z,71.5
2017-07-21T01:55:25.794Z,71.6
2017-07-21T01:56:47.329Z,71.6
2017-07-21T01:57:48.730Z,71.5
2017-07-21T01:59:10.286Z,72.1
2017-07-21T02:00:11.695Z,71.7
2017-07-21T02:01:33.350Z,72.2
2017-07-21T02:02:34.714Z,72.3
2017-07-21T02:03:56.260Z,71.6
2017-07-21T02:04:57.686Z,72.2
2017-07-21T02:06:19.301Z,72.1
2017-07-21T02:07:20.662Z,72.2
2017-07-21T02:08:42.224Z,72.3
2017-07-21T02:09:43.584Z,72.4
2017-07-21T02:11:05.119Z,72.5
2017-07-21T02:12:06.481Z,72.4
2017-07-21T02:13:28.004Z,72.5
2017-07-21T02:14:29.362Z,72.4
2017-07-21T02:15:50.900Z,72.3
2017-07-21T02:16:52.260Z,72.3
2017-07-21T02:18:13.781Z,72.2
2017-07-21T02:19:15.141Z,72.3
2017-07-21T02:20:36.678Z,72.4
2017-07-21T02:21:38.037Z,72.3
2017-07-21T02:22:59.551Z,72.3
2017-07-21T02:24:00.914Z,71.7
2017-07-21T02:25:22.664Z,71.9
2017-07-21T02:26:24.026Z,71.6
2017-07-21T02:27:45.544Z,71.8
2017-07-21T02:28:47.019Z,71.6
2017-07-21T02:30:09.032Z,72.2
2017-07-21T02:31:10.404Z,72.0
2017-07-21T02:32:31.927Z,72.2
2017-07-21T02:33:33.289Z,72.5
2017-07-21T02:34:54.811Z,72.5
2017-07-21T02:35:56.172Z,72.2
2017-07-21T02:37:17.708Z,72.7
2017-07-21T02:38:19.081Z,72.4
2017-07-21T02:39:41.082Z,72.0
2017-07-21T02:40:42.444Z,72.3
2017-07-21T02:42:04.474Z,72.0
2017-07-21T02:43:05.838Z,72.3
2017-07-21T02:44:27.359Z,72.3
2017-07-21T02:45:28.723Z,71.6
2017-07-21T02:46:50.258Z,71.5
2017-07-21T02:47:51.618Z,72.4
2017-07-21T02:49:13.136Z,72.7
2017-07-21T02:50:14.496Z,72.3
2017-07-21T02:51:36.034Z,72.6
2017-07-21T02:52:37.392Z,72.6
2017-07-21T02:53:58.912Z,72.4
2017-07-21T02:55:00.279Z,72.3
2017-07-21T02:56:21.810Z,72.4
2017-07-21T02:57:23.172Z,72.6
2017-07-21T02:58:44.692Z,72.6
2017-07-21T02:59:46.161Z,73.3
2017-07-21T03:01:08.207Z,73.1
2017-07-21T03:02:09.568Z,73.7
2017-07-21T03:03:31.283Z,73.5
2017-07-21T03:04:32.646Z,73.2
2017-07-21T03:05:54.181Z,73.2
2017-07-21T03:06:55.544Z,73.4
2017-07-21T03:08:17.061Z,73.4
2017-07-21T03:09:18.424Z,73.3
2017-07-21T03:10:39.957Z,73.2
2017-07-21T03:11:41.318Z,73.4
2017-07-21T03:13:02.853Z,73.3
2017-07-21T03:14:04.213Z,73.4
2017-07-21T03:15:25.735Z,73.3
2017-07-21T03:16:27.099Z,73.8
2017-07-21T03:17:48.632Z,73.2
2017-07-21T03:18:49.995Z,73.9
2017-07-21T03:20:11.733Z,74.0
2017-07-21T03:21:13.113Z,74.1
2017-07-21T03:22:34.627Z,73.8
2017-07-21T03:23:35.989Z,74.1
2017-07-21T03:24:57.509Z,73.4
2017-07-21T03:25:58.872Z,73.5
2017-07-21T03:27:20.408Z,73.2
2017-07-21T03:28:21.774Z,72.8
2017-07-21T03:29:43.290Z,73.0
2017-07-21T03:30:44.655Z,73.2
2017-07-21T03:32:06.403Z,73.0
2017-07-21T03:33:07.767Z,73.1
2017-07-21T03:34:29.296Z,73.2
2017-07-21T03:35:30.660Z,73.5
2017-07-21T03:36:52.203Z,73.6
2017-07-21T03:37:53.563Z,73.5
2017-07-21T03:39:15.080Z,73.5
2017-07-21T03:40:16.445Z,73.8
2017-07-21T03:41:37.982Z,74.4
2017-07-21T03:42:39.348Z,74.0
2017-07-21T03:44:00.870Z,74.2
2017-07-21T03:45:02.231Z,74.4
2017-07-21T03:46:23.768Z,74.3
2017-07-21T03:47:25.130Z,74.4
2017-07-21T03:48:46.655Z,74.4
2017-07-21T03:49:48.017Z,74.3
2017-07-21T03:51:09.548Z,73.8
2017-07-21T03:52:10.912Z,73.9
2017-07-21T03:53:32.431Z,73.8
2017-07-21T03:54:33.797Z,74.2
2017-07-21T03:55:55.311Z,74.2
2017-07-21T03:56:56.675Z,73.5
2017-07-21T03:58:18.213Z,73.8
2017-07-21T03:59:19.577Z,74.1
2017-07-21T04:00:41.098Z,73.3
2017-07-21T04:01:42.465Z,73.6
2017-07-21T04:03:04.006Z,72.6
2017-07-21T04:04:05.366Z,72.4
2017-07-21T04:05:26.891Z,72.5
2017-07-21T04:06:28.252Z,72.0
2017-07-21T04:07:49.793Z,71.6
2017-07-21T04:08:51.155Z,71.5
2017-07-21T04:10:12.677Z,70.9
2017-07-21T04:11:14.044Z,70.6
2017-07-21T04:12:35.581Z,69.5
2017-07-21T04:13:36.947Z,68.8
2017-07-21T04:14:58.468Z,68.0
2017-07-21T04:15:59.834Z,67.4
2017-07-21T04:17:21.374Z,67.3
2017-07-21T04:18:22.740Z,66.7
2017-07-21T04:19:44.261Z,66.1
2017-07-21T04:20:45.629Z,65.3
2017-07-21T04:22:07.169Z,65.8
2017-07-21T04:23:08.535Z,65.9
2017-07-21T04:24:30.057Z,66.6
2017-07-21T04:25:31.426Z,66.9
2017-07-21T04:26:52.961Z,67.0
2017-07-21T04:27:54.328Z,66.9
2017-07-21T04:29:15.849Z,66.8
2017-07-21T04:30:17.219Z,65.9
2017-07-21T04:31:38.759Z,65.3
2017-07-21T04:32:40.127Z,65.1
2017-07-21T04:34:01.654Z,64.2
2017-07-21T04:35:03.023Z,63.3
2017-07-21T04:36:24.564Z,62.6
2017-07-21T04:37:25.934Z,62.1
2017-07-21T04:38:47.949Z,61.6
2017-07-21T04:39:49.318Z,60.7
2017-07-21T04:41:10.844Z,60.4
2017-07-21T04:42:12.214Z,59.2
2017-07-21T04:43:33.755Z,58.6
2017-07-21T04:44:35.123Z,58.2
2017-07-21T04:45:57.143Z,57.8
2017-07-21T04:46:58.512Z,58.1
2017-07-21T04:48:20.056Z,58.4
2017-07-21T04:49:21.425Z,58.5
2017-07-21T04:50:42.952Z,59.4
2017-07-21T04:51:44.320Z,60.6
2017-07-21T04:53:06.012Z,60.2
2017-07-21T04:54:07.380Z,60.7
2017-07-21T04:55:28.907Z,60.1
2017-07-21T04:56:30.277Z,60.1
2017-07-21T04:57:51.820Z,60.9
2017-07-21T04:58:53.189Z,59.7
2017-07-21T05:00:14.718Z,58.9
2017-07-21T05:01:16.086Z,58.7
2017-07-21T05:02:37.628Z,56.6
2017-07-21T05:03:38.997Z,55.6
2017-07-21T05:05:00.547Z,54.9
2017-07-21T05:06:01.891Z,54.5
2017-07-21T05:07:23.439Z,53.8
2017-07-21T05:08:24.808Z,53.8
2017-07-21T05:09:46.338Z,53.4
2017-07-21T05:10:47.710Z,53.6
2017-07-21T05:12:09.254Z,53.5
2017-07-21T05:13:10.624Z,52.4
2017-07-21T05:14:32.156Z,51.6
2017-07-21T05:15:33.524Z,51.4
2017-07-21T05:16:55.050Z,51.5
2017-07-21T05:17:56.422Z,51.8
2017-07-21T05:19:17.969Z,52.3
2017-07-21T05:20:19.337Z,52.1
2017-07-21T05:21:40.869Z,52.5
2017-07-21T05:22:42.239Z,51.2
2017-07-21T05:24:03.787Z,50.7
2017-07-21T05:25:05.158Z,50.2
2017-07-21T05:26:26.687Z,49.7
2017-07-21T05:27:28.060Z,49.4
2017-07-21T05:28:49.614Z,48.8
2017-07-21T05:29:50.988Z,47.7
2017-07-21T05:31:12.521Z,48.0
2017-07-21T05:32:13.892Z,47.4
2017-07-21T05:33:35.439Z,46.3
2017-07-21T05:34:36.815Z,45.6
2017-07-21T05:35:58.341Z,44.8
2017-07-21T05:36:59.713Z,44.9
2017-07-21T05:38:21.267Z,44.9
2017-07-21T05:39:22.638Z,45.1
2017-07-21T05:40:44.174Z,45.4
2017-07-21T05:41:45.555Z,45.0
2017-07-21T05:43:07.117Z,45.4
2017-07-21T05:44:08.493Z,45.5
2017-07-21T05:45:30.026Z,45.4
2017-07-21T05:46:31.397Z,44.9
2017-07-21T05:47:52.949Z,45.1
2017-07-21T05:48:54.324Z,45.1
2017-07-21T05:50:15.855Z,45.2
2017-07-21T05:51:17.230Z,44.9
2017-07-21T05:52:38.784Z,43.9
2017-07-21T05:53:40.161Z,43.4
2017-07-21T05:55:01.691Z,43.4
2017-07-21T05:56:03.067Z,43.2
2017-07-21T05:57:24.600Z,42.6
2017-07-21T05:58:25.975Z,42.3
2017-07-21T05:59:47.527Z,41.5
2017-07-21T06:00:48.901Z,41.9
2017-07-21T06:02:10.436Z,41.7
2017-07-21T06:03:11.810Z,42.4
2017-07-21T06:04:33.362Z,42.7
2017-07-21T06:05:34.737Z,42.1
2017-07-21T06:06:56.280Z,42.1
2017-07-21T06:07:57.655Z,42.3
2017-07-21T06:09:19.211Z,42.2
2017-07-21T06:10:20.585Z,42.4
2017-07-21T06:11:42.121Z,41.9
2017-07-21T06:12:43.494Z,41.7
2017-07-21T06:14:05.051Z,41.0
2017-07-21T06:15:06.425Z,41.8
2017-07-21T06:16:27.959Z,40.2
2017-07-21T06:17:29.335Z,39.5
2017-07-21T06:18:50.890Z,38.7
2017-07-21T06:19:52.263Z,40.2
2017-07-21T06:21:13.802Z,40.5
2017-07-21T06:22:15.178Z,40.4
2017-07-21T06:23:36.736Z,41.9
2017-07-21T06:24:38.110Z,41.0
2017-07-21T06:25:59.648Z,40.8
2017-07-21T06:27:01.023Z,40.7
2017-07-21T06:28:22.579Z,39.9
2017-07-21T06:29:23.956Z,40.2
2017-07-21T06:30:45.494Z,42.0
2017-07-21T06:31:46.871Z,40.8
2017-07-21T06:33:08.428Z,42.0
2017-07-21T06:34:09.808Z,42.2
2017-07-21T06:35:31.343Z,42.4
2017-07-21T06:36:32.720Z,42.7
2017-07-21T06:37:55.281Z,43.0
2017-07-21T06:38:56.653Z,42.0
2017-07-21T06:40:18.189Z,40.3
2017-07-21T06:41:19.566Z,40.5
2017-07-21T06:42:41.106Z,41.4
2017-07-21T06:43:42.483Z,41.7
2017-07-21T06:45:04.046Z,43.0
2017-07-21T06:46:05.419Z,43.2
2017-07-21T06:47:26.962Z,42.5
2017-07-21T06:48:28.336Z,42.7
2017-07-21T06:49:49.891Z,42.2
2017-07-21T06:50:51.270Z,43.6
2017-07-21T06:52:12.806Z,43.0
2017-07-21T06:53:14.184Z,41.7
2017-07-21T06:54:35.771Z,42.2
2017-07-21T06:55:37.149Z,42.2
2017-07-21T06:56:58.694Z,42.1
2017-07-21T06:58:00.073Z,41.5
2017-07-21T06:59:21.635Z,41.0
2017-07-21T07:00:23.011Z,41.9
2017-07-21T07:01:44.562Z,41.9
2017-07-21T07:02:45.943Z,41.7
2017-07-21T07:04:07.504Z,42.1
2017-07-21T07:05:08.879Z,41.9
2017-07-21T07:06:30.419Z,41.7
2017-07-21T07:07:31.796Z,42.5
2017-07-21T07:08:53.355Z,43.5
2017-07-21T07:09:54.730Z,43.3
2017-07-21T07:11:16.279Z,43.5
2017-07-21T07:12:17.656Z,44.3
2017-07-21T07:13:39.215Z,44.6
2017-07-21T07:14:40.590Z,44.5
2017-07-21T07:16:02.136Z,44.6
2017-07-21T07:17:03.509Z,44.5
2017-07-21T07:18:25.072Z,45.1
2017-07-21T07:19:26.447Z,45.2
2017-07-21T07:20:48.002Z,45.1
2017-07-21T07:21:49.377Z,44.5
2017-07-21T07:23:10.945Z,43.1
2017-07-21T07:24:12.323Z,42.4
2017-07-21T07:25:33.895Z,42.6
2017-07-21T07:26:35.272Z,43.0
2017-07-21T07:27:57.301Z,42.4
2017-07-21T07:28:58.677Z,40.5
2017-07-21T07:30:20.237Z,41.9
2017-07-21T07:31:21.611Z,43.0
2017-07-21T07:32:43.147Z,40.7
2017-07-21T07:33:44.629Z,40.6
2017-07-21T07:35:06.195Z,43.5
2017-07-21T07:36:07.573Z,42.6
2017-07-21T07:37:29.115Z,40.8
2017-07-21T07:38:30.491Z,40.2
2017-07-21T07:39:52.049Z,40.5
2017-07-21T07:40:53.423Z,40.5
2017-07-21T07:42:14.959Z,42.0
2017-07-21T07:43:16.333Z,42.2
2017-07-21T07:44:39.382Z,43.0
2017-07-21T07:45:40.768Z,42.7
2017-07-21T07:47:02.303Z,42.8
2017-07-21T07:48:03.676Z,43.2
2017-07-21T07:49:25.234Z,42.9
2017-07-21T07:50:26.610Z,43.5
2017-07-21T07:51:48.143Z,44.4
2017-07-21T07:52:49.517Z,44.8
2017-07-21T07:54:11.073Z,44.1
2017-07-21T07:55:12.444Z,43.2
2017-07-21T07:56:33.978Z,43.7
2017-07-21T07:57:35.355Z,43.3
2017-07-21T07:58:56.906Z,43.3
2017-07-21T07:59:58.287Z,41.4
2017-07-21T08:01:19.811Z,41.8
2017-07-21T08:02:21.185Z,41.4
2017-07-21T08:03:42.737Z,41.7
2017-07-21T08:04:44.116Z,41.4
2017-07-21T08:06:05.652Z,38.3
2017-07-21T08:07:07.026Z,39.2
2017-07-21T08:08:28.561Z,36.2
2017-07-21T08:09:29.933Z,37.6
2017-07-21T08:10:51.491Z,39.1
2017-07-21T08:11:52.860Z,38.9
2017-07-21T08:13:14.889Z,40.4
2017-07-21T08:14:16.280Z,41.5
2017-07-21T08:15:37.816Z,42.2
2017-07-21T08:16:39.188Z,40.5
2017-07-21T08:18:00.724Z,41.2
2017-07-21T08:19:02.098Z,40.3
2017-07-21T08:20:23.651Z,38.9
2017-07-21T08:21:25.024Z,38.9
2017-07-21T08:22:46.558Z,37.6
2017-07-21T08:23:47.932Z,36.4
2017-07-21T08:25:09.484Z,35.1
2017-07-21T08:26:10.855Z,35.8
2017-07-21T08:27:32.390Z,35.8
2017-07-21T08:28:33.761Z,37.6
2017-07-21T08:29:55.311Z,36.7
2017-07-21T08:30:56.683Z,37.1
2017-07-21T08:32:18.709Z,38.2
2017-07-21T08:33:20.089Z,37.3
2017-07-21T08:34:41.633Z,40.2
2017-07-21T08:35:43.004Z,41.3
2017-07-21T08:37:04.540Z,41.7
2017-07-21T08:38:05.913Z,40.6
2017-07-21T08:39:27.464Z,40.3
2017-07-21T08:40:28.836Z,40.2
2017-07-21T08:41:50.376Z,37.9
2017-07-21T08:42:51.737Z,39.5
2017-07-21T08:44:13.287Z,40.4
2017-07-21T08:45:14.658Z,41.7
2017-07-21T08:46:36.189Z,40.2
2017-07-21T08:47:37.561Z,37.7
2017-07-21T08:48:59.111Z,37.5
2017-07-21T08:50:00.483Z,40.4
2017-07-21T08:51:22.021Z,39.5
2017-07-21T08:52:23.395Z,37.4
2017-07-21T08:53:44.926Z,36.9
2017-07-21T08:54:46.302Z,36.0
2017-07-21T08:56:07.847Z,36.5
2017-07-21T08:57:09.222Z,40.1
2017-07-21T08:58:30.758Z,36.9
2017-07-21T08:59:32.126Z,37.3
2017-07-21T09:00:53.718Z,34.5
2017-07-21T09:01:55.098Z,35.3
2017-07-21T09:03:16.623Z,36.9
2017-07-21T09:04:17.995Z,36.0
2017-07-21T09:05:39.546Z,37.2
2017-07-21T09:06:40.918Z,33.8
2017-07-21T09:08:02.449Z,33.6
2017-07-21T09:09:03.820Z,35.3
2017-07-21T09:10:25.408Z,34.8
2017-07-21T09:11:26.771Z,35.5
2017-07-21T09:12:48.303Z,35.1
2017-07-21T09:13:49.673Z,35.8
2017-07-21T09:15:12.222Z,37.1
2017-07-21T09:16:13.594Z,37.2
2017-07-21T09:17:35.135Z,36.5
2017-07-21T09:18:36.505Z,35.6
2017-07-21T09:19:58.065Z,37.2
2017-07-21T09:20:59.438Z,36.4
2017-07-21T09:22:20.970Z,37.6
2017-07-21T09:23:22.340Z,37.8
2017-07-21T09:24:44.402Z,34.7
2017-07-21T09:25:45.765Z,32.1
2017-07-21T09:27:07.300Z,33.2
2017-07-21T09:28:08.672Z,35.9
2017-07-21T09:29:30.226Z,36.4
2017-07-21T09:30:31.598Z,33.1
2017-07-21T09:31:53.135Z,37.2
2017-07-21T09:32:54.507Z,36.1
2017-07-21T09:34:16.066Z,34.3
2017-07-21T09:35:17.437Z,33.0
2017-07-21T09:36:38.970Z,33.7
2017-07-21T09:37:40.341Z,34.8
2017-07-21T09:39:01.871Z,33.8
2017-07-21T09:40:03.243Z,32.9
2017-07-21T09:41:24.795Z,34.5
2017-07-21T09:42:26.174Z,35.3
2017-07-21T09:43:47.782Z,34.5
2017-07-21T09:44:49.156Z,36.7
2017-07-21T09:46:10.709Z,36.8
2017-07-21T09:47:12.167Z,36.8
2017-07-21T09:48:33.721Z,36.5
2017-07-21T09:49:35.101Z,37.0
2017-07-21T09:50:56.853Z,34.0
2017-07-21T09:51:58.222Z,33.6
2017-07-21T09:53:19.762Z,34.4
2017-07-21T09:54:21.455Z,37.4
2017-07-21T09:55:43.006Z,38.1
2017-07-21T09:56:44.444Z,36.2
2017-07-21T09:58:05.981Z,33.3
2017-07-21T09:59:07.515Z,32.5
2017-07-21T10:00:29.059Z,32.8
2017-07-21T10:01:30.429Z,31.1
2017-07-21T10:02:52.204Z,33.9
2017-07-21T10:03:54.234Z,36.1
2017-07-21T10:05:17.207Z,35.7
2017-07-21T10:06:18.592Z,33.4
2017-07-21T10:07:40.165Z,30.3
2017-07-21T10:08:42.087Z,31.3
2017-07-21T10:10:03.834Z,33.0
2017-07-21T10:11:05.212Z,30.6
2017-07-21T10:12:27.056Z,29.3
2017-07-21T10:13:28.435Z,30.4
2017-07-21T10:14:50.476Z,29.4
2017-07-21T10:15:51.854Z,30.0
2017-07-21T10:17:13.404Z,31.2
2017-07-21T10:18:14.776Z,32.1
2017-07-21T10:19:36.339Z,29.0
2017-07-21T14:10:40.265Z,30.5
2017-07-21T14:11:41.641Z,32.6
2017-07-21T14:13:03.367Z,28.9
2017-07-21T14:14:04.737Z,26.5
2017-07-21T14:15:26.369Z,26.7
2017-07-21T14:16:28.241Z,27.9
2017-07-21T14:17:49.830Z,26.5
2017-07-21T14:18:51.210Z,26.1
2017-07-21T14:20:12.762Z,27.8
2017-07-21T14:21:14.221Z,31.2
2017-07-21T14:22:35.849Z,28.0
2017-07-21T14:23:37.306Z,28.2
2017-07-21T14:25:04.568Z,27.3
2017-07-21T14:26:05.974Z,28.6
2017-07-21T14:27:28.598Z,30.6
2017-07-21T14:28:29.972Z,28.8
2017-07-21T14:29:51.623Z,27.8
2017-07-21T14:30:53.000Z,26.4
2017-07-21T14:32:14.624Z,26.4
2017-07-21T14:33:16.010Z,25.8
2017-07-21T14:34:37.749Z,28.0
2017-07-21T14:35:39.329Z,28.2
2017-07-21T14:37:00.893Z,26.9
2017-07-21T14:38:02.270Z,26.8
2017-07-21T14:39:23.863Z,26.8
2017-07-21T14:40:25.242Z,26.2
2017-07-21T14:41:46.947Z,26.2
2017-07-21T14:42:48.331Z,26.5
2017-07-21T14:44:09.968Z,28.3
2017-07-21T14:45:11.584Z,27.5
2017-07-21T14:46:33.106Z,29.1
2017-07-21T14:47:34.479Z,29.0
2017-07-21T14:48:56.072Z,30.5
2017-07-21T14:49:57.637Z,26.7
2017-07-21T14:51:19.212Z,27.5
2017-07-21T14:52:20.584Z,30.4
2017-07-21T14:53:42.184Z,28.2
2017-07-21T14:54:43.557Z,27.5
2017-07-21T14:56:05.115Z,26.9
2017-07-21T14:57:06.487Z,27.6
2017-07-21T14:58:28.300Z,27.2
2017-07-21T14:59:29.685Z,26.6
2017-07-21T15:00:51.394Z,26.5
2017-07-21T15:01:52.939Z,27.4
2017-07-21T15:03:14.598Z,29.4
2017-07-21T15:04:15.973Z,27.8
2017-07-21T15:05:37.531Z,30.3
2017-07-21T15:06:38.900Z,28.9
2017-07-21T15:08:00.503Z,26.2
2017-07-21T15:09:01.873Z,26.3
2017-07-21T15:10:23.454Z,27.9
2017-07-21T15:11:24.839Z,29.1
2017-07-21T15:12:47.458Z,27.5
2017-07-21T15:13:48.831Z,26.3
2017-07-21T15:15:10.581Z,26.1
2017-07-21T15:16:11.984Z,27.6
2017-07-21T15:17:34.050Z,27.3
2017-07-21T15:18:35.425Z,26.0
2017-07-21T15:19:57.591Z,28.2
2017-07-21T15:20:58.971Z,27.6
2017-07-21T15:22:20.540Z,26.9
2017-07-21T15:23:21.912Z,26.9
2017-07-21T15:24:43.668Z,27.9
2017-07-21T15:25:45.051Z,26.0
2017-07-21T15:27:07.161Z,25.3
2017-07-21T15:28:08.533Z,26.1
2017-07-21T15:29:30.643Z,27.2
2017-07-21T15:30:32.014Z,27.5
2017-07-21T15:31:53.573Z,26.4
2017-07-21T15:32:54.944Z,27.3
2017-07-21T15:34:16.545Z,27.0
2017-07-21T15:35:17.919Z,27.9
2017-07-21T15:36:39.720Z,26.5
2017-07-21T15:37:41.100Z,26.2
2017-07-21T15:39:02.754Z,27.2
2017-07-21T15:40:04.128Z,27.4
2017-07-21T15:41:25.686Z,28.8
2017-07-21T15:42:27.058Z,29.3
2017-07-21T15:43:48.654Z,30.6
2017-07-21T15:44:50.027Z,28.3
2017-07-21T15:46:11.585Z,27.3
2017-07-21T15:47:12.957Z,26.5
2017-07-21T15:48:34.558Z,27.0
2017-07-21T15:49:35.929Z,26.0
2017-07-21T15:50:57.487Z,25.6
2017-07-21T15:51:58.861Z,27.3
2017-07-21T15:53:20.456Z,26.1
2017-07-21T15:54:21.827Z,27.7
2017-07-21T15:55:43.495Z,29.9
2017-07-21T15:56:44.862Z,28.3
2017-07-21T15:58:06.462Z,28.9
2017-07-21T15:59:07.836Z,27.6
2017-07-21T16:00:29.660Z,27.6
2017-07-21T16:01:31.038Z,27.9
2017-07-21T16:02:52.667Z,27.7
2017-07-21T16:03:54.041Z,28.6
2017-07-21T16:05:15.600Z,29.7
2017-07-21T16:06:16.973Z,29.5
2017-07-21T16:07:38.549Z,27.7
2017-07-21T16:08:39.921Z,27.6
2017-07-21T16:10:02.069Z,27.3
2017-07-21T16:11:03.442Z,28.7
2017-07-21T16:12:25.067Z,26.9
2017-07-21T16:13:26.440Z,26.6
2017-07-21T16:14:49.062Z,27.0
2017-07-21T16:15:50.431Z,26.9
2017-07-21T16:17:11.992Z,27.2
2017-07-21T16:18:13.366Z,27.9
2017-07-21T16:19:34.958Z,28.2
2017-07-21T16:20:36.331Z,26.8
2017-07-21T16:21:57.891Z,28.1
2017-07-21T16:22:59.263Z,28.8
2017-07-21T16:24:20.864Z,29.0
2017-07-21T16:25:22.236Z,28.6
2017-07-21T16:26:43.794Z,28.7
2017-07-21T16:27:45.169Z,28.0
2017-07-21T16:29:07.276Z,28.5
2017-07-21T16:30:08.649Z,28.2
2017-07-21T16:31:30.206Z,29.4
2017-07-21T16:32:31.579Z,28.7
2017-07-21T16:33:53.178Z,28.5
2017-07-21T16:34:54.550Z,28.4
2017-07-21T16:36:16.112Z,28.1
2017-07-21T16:37:17.483Z,27.5
2017-07-21T16:38:39.080Z,28.6
2017-07-21T16:39:40.451Z,28.3
2017-07-21T16:41:02.523Z,27.3
2017-07-21T16:42:03.897Z,27.7
2017-07-21T16:43:25.491Z,29.8
2017-07-21T16:44:26.865Z,29.0
2017-07-21T16:45:48.422Z,28.6
2017-07-21T16:46:49.797Z,28.2
2017-07-21T16:48:11.394Z,28.3
2017-07-21T16:49:12.766Z,28.9
2017-07-21T16:50:34.402Z,28.3
2017-07-21T16:51:35.772Z,28.4
2017-07-21T16:52:57.380Z,29.6
2017-07-21T16:53:58.755Z,28.3
2017-07-21T16:55:20.350Z,30.4
2017-07-21T16:56:21.719Z,30.0
2017-07-21T16:57:43.282Z,29.8
2017-07-21T16:58:44.655Z,28.4
2017-07-21T17:00:06.247Z,28.2
2017-07-21T17:01:07.623Z,28.6
2017-07-21T17:02:29.180Z,29.1
2017-07-21T17:03:30.554Z,28.6
2017-07-21T17:04:52.149Z,29.1
2017-07-21T17:05:53.522Z,28.6
2017-07-21T17:07:15.084Z,29.2
2017-07-21T17:08:16.471Z,29.0
2017-07-21T17:09:38.051Z,27.7
2017-07-21T17:10:39.426Z,27.6
2017-07-21T17:12:00.986Z,28.6
2017-07-21T17:13:02.361Z,28.8
2017-07-21T17:14:23.957Z,29.4
2017-07-21T17:15:25.329Z,29.7
2017-07-21T17:16:46.888Z,29.0
2017-07-21T17:17:48.260Z,28.6
2017-07-21T17:19:09.856Z,30.4
2017-07-21T17:20:11.227Z,29.1
2017-07-21T17:21:32.787Z,29.6
2017-07-21T17:22:34.162Z,30.2
2017-07-21T17:23:55.773Z,30.5
2017-07-21T17:24:57.135Z,30.4
2017-07-21T17:26:18.689Z,31.4
2017-07-21T17:27:20.061Z,31.3
2017-07-21T17:28:41.657Z,30.1
2017-07-21T17:29:43.029Z,29.6
2017-07-21T17:31:04.593Z,29.5
2017-07-21T17:32:05.986Z,29.6
2017-07-21T17:33:27.561Z,29.2
2017-07-21T17:34:28.934Z,30.4
2017-07-21T17:35:50.492Z,30.0
2017-07-21T17:36:51.865Z,29.5
2017-07-21T17:38:13.449Z,29.7
2017-07-21T17:39:14.820Z,31.3
2017-07-21T17:40:36.413Z,30.0
2017-07-21T17:41:37.787Z,29.6
2017-07-21T17:42:59.347Z,30.5
2017-07-21T17:44:00.719Z,30.1
2017-07-21T17:45:22.829Z,28.7
2017-07-21T17:46:24.202Z,28.3
2017-07-21T17:47:45.757Z,29.2
2017-07-21T17:48:47.131Z,28.9
2017-07-21T17:50:08.732Z,28.9
2017-07-21T17:51:10.100Z,28.8
2017-07-21T17:52:31.659Z,29.6
2017-07-21T17:53:33.033Z,29.3
2017-07-21T17:54:54.630Z,30.3
2017-07-21T17:55:56.004Z,29.3
2017-07-21T17:57:17.561Z,29.5
2017-07-21T17:58:18.934Z,30.2
2017-07-21T17:59:40.530Z,30.1
2017-07-21T18:00:41.902Z,29.7
2017-07-21T18:02:03.464Z,29.3
2017-07-21T18:03:04.840Z,28.4
2017-07-21T18:04:26.430Z,27.6
2017-07-21T18:05:27.803Z,28.3
2017-07-21T18:06:49.366Z,27.8
2017-07-21T18:07:50.738Z,27.5
2017-07-21T18:09:12.333Z,27.6
2017-07-21T18:10:13.706Z,27.5
2017-07-21T18:11:35.266Z,28.2
2017-07-21T18:12:36.647Z,27.6
2017-07-21T18:13:58.238Z,27.4
2017-07-21T18:14:59.612Z,27.9
2017-07-21T18:16:21.193Z,27.5
2017-07-21T18:17:22.573Z,28.0
2017-07-21T18:18:44.140Z,26.8
2017-07-21T18:19:45.516Z,26.5
2017-07-21T18:21:07.070Z,26.3
2017-07-21T18:22:08.444Z,26.5
2017-07-21T18:23:30.019Z,26.4
2017-07-21T18:24:31.391Z,26.1
2017-07-21T18:25:52.989Z,27.2
2017-07-21T18:26:54.362Z,26.5
2017-07-21T18:28:15.921Z,27.3
2017-07-21T18:29:17.292Z,27.5
2017-07-21T18:30:38.894Z,27.5
2017-07-21T18:31:40.267Z,28.3
2017-07-21T18:33:01.822Z,28.7
2017-07-21T18:34:03.213Z,28.3
2017-07-21T18:35:27.759Z,28.7
2017-07-21T18:54:40.994Z,35.0
2017-07-21T18:55:42.363Z,35.3
2017-07-21T18:57:03.923Z,35.8
2017-07-21T18:58:05.299Z,35.9
2017-07-21T18:59:26.898Z,36.0
2017-07-21T19:00:28.263Z,36.3
2017-07-21T19:01:49.824Z,36.4
2017-07-21T19:02:51.198Z,36.5
2017-07-21T19:04:12.796Z,36.8
2017-07-21T19:05:14.166Z,36.5
2017-07-21T19:06:35.727Z,37.0
2017-07-21T19:07:37.099Z,37.2
2017-07-21T19:08:58.695Z,37.3
2017-07-21T19:10:00.091Z,37.6
2017-07-21T19:11:22.159Z,37.4
2017-07-21T19:12:23.532Z,37.7
2017-07-21T19:13:45.095Z,38.3
2017-07-21T19:14:46.873Z,38.5
2017-07-21T19:16:08.469Z,37.9
2017-07-21T19:17:09.837Z,38.7
2017-07-21T19:18:31.399Z,38.6
2017-07-21T19:19:32.771Z,38.5
2017-07-21T19:20:54.374Z,38.4
2017-07-21T19:21:55.745Z,38.8
2017-07-21T19:23:17.813Z,39.3
2017-07-21T19:24:19.181Z,39.4
2017-07-21T19:25:40.789Z,39.3
2017-07-21T19:26:42.159Z,39.3
2017-07-21T19:28:03.722Z,39.4
2017-07-21T19:29:05.092Z,39.6
2017-07-21T19:30:26.685Z,39.7
2017-07-21T19:31:28.062Z,40.1
2017-07-21T19:32:49.617Z,39.8
2017-07-21T19:33:50.986Z,40.4
2017-07-21T19:35:12.588Z,40.3
2017-07-21T19:36:13.957Z,41.4
2017-07-21T19:37:35.539Z,40.5
2017-07-21T19:38:36.909Z,40.9
2017-07-21T19:39:59.100Z,41.5
2017-07-21T19:41:00.465Z,42.1
2017-07-21T19:42:22.544Z,41.9
2017-07-21T19:43:23.915Z,42.3
2017-07-21T19:44:45.515Z,42.2
2017-07-21T19:45:46.882Z,42.4
2017-07-21T19:47:08.954Z,43.0
2017-07-21T19:48:10.324Z,42.5
2017-07-21T19:49:31.928Z,43.4
2017-07-21T19:50:33.296Z,42.4
2017-07-21T19:51:54.858Z,43.2
2017-07-21T19:52:56.226Z,43.1
2017-07-21T19:54:17.810Z,43.2
2017-07-21T19:55:19.176Z,43.6
2017-07-21T19:56:40.783Z,43.7
2017-07-21T19:57:42.150Z,43.9
2017-07-21T19:59:03.713Z,44.2